createdAt,value
2022-12-26T00:00:37.594Z,99946.88
2022-12-26T00:01:41.638Z,99950.41
2022-12-26T00:02:44.319Z,99944.06
2022-12-26T00:03:46.082Z,99954.09
2022-12-26T00:04:53.264Z,99954.56
2022-12-26T00:05:59.255Z,99957.44
2022-12-26T00:07:01.687Z,99945.09
2022-12-26T00:08:03.638Z,99942.81
2022-12-26T00:09:08.267Z,99949.16
2022-12-26T00:10:10.172Z,99951.84
2022-12-26T00:11:13.301Z,99950.13
2022-12-26T00:12:15.867Z,99941.94
2022-12-26T00:13:38.498Z,99933.75
2022-12-26T00:14:42.915Z,99935.22
2022-12-26T00:15:46.899Z,99940.81
2022-12-26T00:16:53.390Z,99937.00
2022-12-26T00:17:55.064Z,99950.13
2022-12-26T00:18:58.903Z,99955.72
2022-12-26T00:20:01.825Z,99956.16
2022-12-26T00:21:06.175Z,99948.84
2022-12-26T00:22:07.723Z,99956.31
2022-12-26T00:23:10.204Z,99950.84
2022-12-26T00:24:13.559Z,99963.00
2022-12-26T00:25:16.297Z,99953.28
2022-12-26T00:26:19.797Z,99948.66
2022-12-26T00:27:22.294Z,99950.63
2022-12-26T00:28:23.854Z,99947.31
2022-12-26T00:29:26.494Z,99949.47
2022-12-26T00:30:28.384Z,99953.97
2022-12-26T00:31:33.732Z,99949.50
2022-12-26T00:32:35.277Z,99952.19
2022-12-26T00:33:38.506Z,99936.44
2022-12-26T00:34:40.829Z,99934.88
2022-12-26T00:35:45.215Z,99931.84
2022-12-26T00:36:50.840Z,99941.22
2022-12-26T00:37:56.116Z,99941.22
2022-12-26T00:38:59.917Z,99944.34
2022-12-26T00:40:02.681Z,99939.28
2022-12-26T00:41:04.714Z,99936.06
2022-12-26T00:42:07.364Z,99935.88
2022-12-26T00:43:09.019Z,99952.38
2022-12-26T00:44:11.527Z,99935.94
2022-12-26T00:45:13.052Z,99939.31
2022-12-26T00:46:16.311Z,99935.41
2022-12-26T00:47:18.928Z,99945.16
2022-12-26T00:48:20.432Z,99939.56
2022-12-26T00:49:22.866Z,99940.31
2022-12-26T00:50:27.157Z,99939.78
2022-12-26T00:51:32.085Z,99947.31
2022-12-26T00:52:34.924Z,99935.13
2022-12-26T00:53:37.495Z,99938.28
2022-12-26T00:54:39.074Z,99921.59
2022-12-26T00:55:41.481Z,99934.47
2022-12-26T00:56:43.012Z,99931.91
2022-12-26T00:57:45.608Z,99931.19
2022-12-26T00:58:47.135Z,99934.16
2022-12-26T00:59:49.717Z,99930.94
2022-12-26T01:00:51.597Z,99942.66
2022-12-26T01:01:54.178Z,99948.22
2022-12-26T01:02:56.003Z,99952.38
2022-12-26T01:04:01.777Z,99942.53
2022-12-26T01:05:03.833Z,99946.28
2022-12-26T01:06:06.537Z,99940.13
2022-12-26T01:07:10.903Z,99942.81
2022-12-26T01:08:22.616Z,99935.06
2022-12-26T01:09:27.198Z,99931.75
2022-12-26T01:10:28.712Z,99942.59
2022-12-26T01:11:43.102Z,99940.53
2022-12-26T01:12:44.608Z,99932.97
2022-12-26T01:13:47.049Z,99934.53
2022-12-26T01:14:48.543Z,99928.88
2022-12-26T01:15:51.783Z,99929.38
2022-12-26T01:16:54.388Z,99935.94
2022-12-26T01:17:56.201Z,99923.97
2022-12-26T01:18:58.887Z,99922.66
2022-12-26T01:20:00.920Z,99931.59
2022-12-26T01:21:05.806Z,99930.56
2022-12-26T01:22:07.289Z,99928.81
2022-12-26T01:23:11.758Z,99915.88
2022-12-26T01:24:15.569Z,99916.09
2022-12-26T01:25:20.173Z,99916.75
2022-12-26T01:26:22.666Z,99919.56
2022-12-26T01:27:25.867Z,99927.66
2022-12-26T01:28:28.320Z,99931.59
2022-12-26T01:29:29.862Z,99940.28
2022-12-26T01:30:32.268Z,99934.13
2022-12-26T01:31:33.802Z,99926.97
2022-12-26T01:32:36.292Z,99936.03
2022-12-26T01:33:37.811Z,99922.38
2022-12-26T01:34:40.257Z,99924.50
2022-12-26T01:35:50.226Z,99910.78
2022-12-26T01:36:54.307Z,99920.34
2022-12-26T01:37:56.502Z,99930.41
2022-12-26T01:38:58.983Z,99927.75
2022-12-26T01:40:01.877Z,99936.91
2022-12-26T01:41:20.880Z,99926.66
2022-12-26T01:42:25.151Z,99926.75
2022-12-26T01:43:27.603Z,99925.56
2022-12-26T01:45:10.033Z,99934.78
2022-12-26T01:46:11.595Z,99937.22
2022-12-26T01:47:14.299Z,99927.03
2022-12-26T01:48:20.857Z,99933.91
2022-12-26T01:49:32.763Z,99933.81
2022-12-26T01:50:40.801Z,99928.47
2022-12-26T01:51:48.265Z,99938.25
2022-12-26T01:52:58.394Z,99933.97
2022-12-26T01:54:37.990Z,99935.00
2022-12-26T01:55:33.002Z,99923.16
2022-12-26T01:56:41.048Z,99923.56
2022-12-26T01:57:47.538Z,99921.09
2022-12-26T01:58:54.213Z,99922.88
2022-12-26T01:59:58.458Z,99917.88
2022-12-26T02:01:04.613Z,99925.34
2022-12-26T02:02:06.796Z,99934.84
2022-12-26T02:03:28.047Z,99938.91
2022-12-26T02:04:54.997Z,99926.78
2022-12-26T02:06:00.583Z,99929.97
2022-12-26T02:07:11.245Z,99932.25
2022-12-26T02:08:18.196Z,99930.22
2022-12-26T02:09:20.509Z,99928.69
2022-12-26T02:10:27.596Z,99933.47
2022-12-26T02:11:41.453Z,99924.88
2022-12-26T02:12:44.004Z,99911.63
2022-12-26T02:13:50.588Z,99928.97
2022-12-26T02:14:52.255Z,99925.91
2022-12-26T02:15:54.743Z,99921.47
2022-12-26T02:16:56.475Z,99927.41
2022-12-26T02:17:58.990Z,99935.03
2022-12-26T02:19:00.662Z,99936.31
2022-12-26T02:20:11.768Z,99944.22
2022-12-26T02:21:42.831Z,99933.28
2022-12-26T02:23:23.920Z,99941.47
2022-12-26T02:24:56.740Z,99951.31
2022-12-26T02:26:30.172Z,99950.19
2022-12-26T02:28:00.454Z,99954.16
2022-12-26T02:29:26.942Z,99973.19
2022-12-26T02:30:42.807Z,99961.22
2022-12-26T02:31:50.081Z,99952.53
2022-12-26T02:33:09.032Z,99959.00
2022-12-26T02:34:15.750Z,99960.53
2022-12-26T02:35:29.568Z,99966.63
2022-12-26T02:36:50.357Z,99960.75
2022-12-26T02:38:00.766Z,99956.16
2022-12-26T02:39:45.587Z,99951.00
2022-12-26T02:40:52.975Z,99951.72
2022-12-26T02:42:09.499Z,99950.31
2022-12-26T02:43:22.689Z,99958.19
2022-12-26T02:44:46.029Z,99967.59
2022-12-26T02:46:17.825Z,99951.13
2022-12-26T02:47:27.421Z,99949.41
2022-12-26T02:48:37.290Z,99954.78
2022-12-26T02:50:13.167Z,99958.78
2022-12-26T02:51:41.889Z,99962.72
2022-12-26T02:53:13.354Z,99954.03
2022-12-26T02:54:41.224Z,99937.25
2022-12-26T02:56:05.868Z,99939.06
2022-12-26T02:57:35.052Z,99938.56
2022-12-26T02:59:00.988Z,99952.22
2022-12-26T03:00:26.495Z,99948.97
2022-12-26T03:01:55.234Z,99960.22
2022-12-26T03:03:20.544Z,99962.31
2022-12-26T03:04:42.906Z,99969.50
2022-12-26T03:06:10.546Z,99962.66
2022-12-26T03:07:39.239Z,99962.03
2022-12-26T03:09:07.721Z,99954.56
2022-12-26T03:10:36.746Z,99962.25
2022-12-26T03:12:00.163Z,99955.34
2022-12-26T03:13:13.456Z,99967.41
2022-12-26T03:14:19.007Z,99966.28
2022-12-26T03:15:24.976Z,99966.19
2022-12-26T03:16:45.718Z,99957.75
2022-12-26T03:17:58.110Z,99960.78
2022-12-26T03:19:05.683Z,99960.22
2022-12-26T03:20:13.716Z,99955.31
2022-12-26T03:21:18.419Z,99960.50
2022-12-26T03:22:33.956Z,99966.59
2022-12-26T03:23:41.357Z,99961.47
2022-12-26T03:24:57.912Z,99958.13
2022-12-26T03:26:22.533Z,99961.34
2022-12-26T03:27:25.071Z,99972.06
2022-12-26T03:28:27.140Z,99969.03
2022-12-26T03:29:47.163Z,99976.78
2022-12-26T03:30:49.030Z,99979.34
2022-12-26T03:31:50.651Z,99978.66
2022-12-26T03:32:58.670Z,99981.00
2022-12-26T03:34:18.564Z,99965.91
2022-12-26T03:35:21.049Z,99967.56
2022-12-26T03:36:36.263Z,99971.91
2022-12-26T03:37:50.350Z,99976.09
2022-12-26T03:39:07.624Z,99970.34
2022-12-26T03:40:43.798Z,99973.34
2022-12-26T03:42:13.675Z,99967.91
2022-12-26T03:43:46.548Z,99981.13
2022-12-26T03:45:15.071Z,99988.84
2022-12-26T03:46:41.711Z,99987.59
2022-12-26T03:48:13.546Z,99984.47
2022-12-26T03:49:41.005Z,99990.44
2022-12-26T03:51:05.732Z,99993.41
2022-12-26T03:52:33.101Z,100002.94
2022-12-26T03:54:06.738Z,99988.47
2022-12-26T03:55:33.893Z,100001.25
2022-12-26T03:56:59.450Z,99992.59
2022-12-26T03:58:25.469Z,99988.59
2022-12-26T04:00:03.900Z,99994.38
2022-12-26T04:01:29.096Z,99993.47
2022-12-26T04:02:52.512Z,100002.13
2022-12-26T04:04:16.296Z,100007.28
2022-12-26T04:05:39.130Z,100002.28
2022-12-26T04:07:04.082Z,100000.06
2022-12-26T04:08:38.238Z,100011.72
2022-12-26T04:10:02.495Z,100029.56
2022-12-26T04:11:32.089Z,100014.59
2022-12-26T04:12:56.249Z,100011.28
2022-12-26T04:14:23.338Z,100011.28
2022-12-26T04:15:50.925Z,100025.63
2022-12-26T04:17:17.970Z,100028.13
2022-12-26T04:18:45.942Z,100016.00
2022-12-26T04:20:01.186Z,100011.44
2022-12-26T04:21:30.456Z,100018.00
2022-12-26T04:22:59.143Z,100016.47
2022-12-26T04:24:26.231Z,100012.03
2022-12-26T04:25:51.759Z,100025.63
2022-12-26T04:27:17.561Z,100032.81
2022-12-26T04:28:38.494Z,100014.25
2022-12-26T04:29:58.944Z,100010.19
2022-12-26T04:31:25.261Z,100024.66
2022-12-26T04:32:54.178Z,99996.88
2022-12-26T04:34:20.039Z,99994.84
2022-12-26T04:35:50.782Z,100004.16
2022-12-26T04:37:18.010Z,100009.44
2022-12-26T04:38:42.944Z,100004.28
2022-12-26T04:40:07.436Z,99997.22
2022-12-26T04:41:30.227Z,99993.00
2022-12-26T04:42:54.622Z,100000.91
2022-12-26T04:44:07.538Z,100005.19
2022-12-26T04:45:10.952Z,100006.66
2022-12-26T04:46:17.940Z,100008.44
2022-12-26T04:47:19.642Z,100012.19
2022-12-26T04:48:39.861Z,99999.38
2022-12-26T04:50:03.515Z,99993.94
2022-12-26T04:51:06.542Z,99986.06
2022-12-26T04:52:11.993Z,99998.53
2022-12-26T04:53:16.114Z,100002.34
2022-12-26T04:54:18.499Z,99995.66
2022-12-26T04:55:22.830Z,99992.81
2022-12-26T04:56:24.432Z,100001.81
2022-12-26T04:57:26.849Z,100005.47
2022-12-26T04:58:31.284Z,100009.53
2022-12-26T04:59:34.366Z,100006.19
2022-12-26T05:00:38.611Z,100007.00
2022-12-26T05:02:02.107Z,100014.59
2022-12-26T05:03:36.839Z,100022.66
2022-12-26T05:04:57.151Z,100028.06
2022-12-26T05:06:17.425Z,100026.31
2022-12-26T05:07:41.677Z,100035.09
2022-12-26T05:09:04.107Z,100057.22
2022-12-26T05:10:11.449Z,100025.34
2022-12-26T05:11:12.975Z,100021.34
2022-12-26T05:12:15.453Z,100021.53
2022-12-26T05:13:17.071Z,100017.31
2022-12-26T05:14:19.634Z,100016.34
2022-12-26T05:15:21.774Z,100026.22
2022-12-26T05:16:43.765Z,100009.00
2022-12-26T05:18:04.164Z,100010.25
2022-12-26T05:19:26.013Z,100015.03
2022-12-26T05:20:42.711Z,100018.34
2022-12-26T05:22:03.060Z,100022.66
2022-12-26T05:23:34.049Z,99988.72
2022-12-26T05:24:57.971Z,99977.53
2022-12-26T05:26:18.132Z,99979.25
2022-12-26T05:27:39.402Z,99987.16
2022-12-26T05:28:44.870Z,99984.13
2022-12-26T05:29:48.957Z,99985.03
2022-12-26T05:30:51.452Z,99987.66
2022-12-26T05:31:55.064Z,99987.09
2022-12-26T05:33:15.258Z,99991.59
2022-12-26T05:34:20.812Z,99989.53
2022-12-26T05:35:22.498Z,99985.56
2022-12-26T05:36:28.634Z,99986.00
2022-12-26T05:37:30.237Z,99977.13
2022-12-26T05:38:34.132Z,99977.59
2022-12-26T05:39:35.637Z,99985.50
2022-12-26T05:40:38.200Z,99973.94
2022-12-26T05:41:40.607Z,99975.53
2022-12-26T05:42:43.328Z,99968.69
2022-12-26T05:43:48.673Z,99958.69
2022-12-26T05:44:51.200Z,99955.66
2022-12-26T05:45:52.722Z,99958.09
2022-12-26T05:46:55.317Z,99964.53
2022-12-26T05:47:58.402Z,99967.31
2022-12-26T05:49:01.367Z,99965.81
2022-12-26T05:50:05.911Z,99962.28
2022-12-26T05:51:09.077Z,99961.53
2022-12-26T05:52:10.591Z,99954.59
2022-12-26T05:53:13.222Z,99964.56
2022-12-26T05:54:17.204Z,99980.06
2022-12-26T05:55:18.736Z,99972.22
2022-12-26T05:56:22.181Z,99975.28
2022-12-26T05:57:23.671Z,99973.59
2022-12-26T05:58:26.132Z,99973.94
2022-12-26T05:59:28.161Z,99975.97
2022-12-26T06:00:31.507Z,99981.13
2022-12-26T06:01:34.070Z,99981.63
2022-12-26T06:02:35.936Z,99979.28
2022-12-26T06:03:39.297Z,99988.09
2022-12-26T06:04:41.846Z,99988.72
2022-12-26T06:05:43.415Z,99993.19
2022-12-26T06:06:45.911Z,100001.25
2022-12-26T06:07:48.893Z,99996.66
2022-12-26T06:08:52.752Z,100002.72
2022-12-26T06:09:55.602Z,100001.66
2022-12-26T06:10:58.197Z,100015.78
2022-12-26T06:11:59.721Z,100015.78
2022-12-26T06:13:02.550Z,100013.91
2022-12-26T06:14:04.818Z,100020.22
2022-12-26T06:15:08.360Z,100016.44
2022-12-26T06:16:12.410Z,100010.94
2022-12-26T06:17:15.437Z,100012.34
2022-12-26T06:18:17.108Z,100009.81
2022-12-26T06:19:19.665Z,100006.72
2022-12-26T06:20:21.233Z,100010.75
2022-12-26T06:21:23.828Z,100010.75
2022-12-26T06:22:25.400Z,100004.84
2022-12-26T06:23:29.572Z,100020.44
2022-12-26T06:24:31.568Z,100012.63
2022-12-26T06:25:35.876Z,100015.41
2022-12-26T06:26:37.854Z,100028.19
2022-12-26T06:27:40.417Z,100017.72
2022-12-26T06:28:43.578Z,100020.81
2022-12-26T06:29:46.982Z,100025.91
2022-12-26T06:30:48.554Z,100023.44
2022-12-26T06:31:51.197Z,100031.75
2022-12-26T06:32:52.806Z,100040.81
2022-12-26T06:33:58.356Z,100036.97
2022-12-26T06:34:59.948Z,100042.81
2022-12-26T06:36:06.856Z,100047.59
2022-12-26T06:37:09.410Z,100049.53
2022-12-26T06:38:11.534Z,100042.22
2022-12-26T06:39:13.991Z,100042.88
2022-12-26T06:40:15.620Z,100042.22
2022-12-26T06:41:21.772Z,100039.84
2022-12-26T06:42:23.481Z,100047.75
2022-12-26T06:43:25.938Z,100045.38
2022-12-26T06:44:27.551Z,100045.91
2022-12-26T06:45:30.069Z,100052.84
2022-12-26T06:46:31.648Z,100046.47
2022-12-26T06:47:36.029Z,100055.00
2022-12-26T06:48:39.796Z,100049.69
2022-12-26T06:49:44.475Z,100047.47
2022-12-26T06:50:45.999Z,100054.09
2022-12-26T06:51:48.524Z,100047.09
2022-12-26T06:52:50.027Z,100046.34
2022-12-26T06:53:53.785Z,100034.09
2022-12-26T06:54:55.268Z,100037.94
2022-12-26T06:56:06.811Z,100028.53
2022-12-26T06:57:09.729Z,100026.03
2022-12-26T06:58:12.318Z,100028.19
2022-12-26T06:59:14.822Z,100036.59
2022-12-26T07:00:16.613Z,100044.56
2022-12-26T07:01:20.468Z,100041.91
2022-12-26T07:02:22.211Z,100038.00
2022-12-26T07:03:26.270Z,100034.88
2022-12-26T07:04:28.018Z,100033.06
2022-12-26T07:05:30.571Z,100044.50
2022-12-26T07:06:34.192Z,100037.56
2022-12-26T07:07:36.694Z,100038.75
2022-12-26T07:08:38.789Z,100051.06
2022-12-26T07:09:41.302Z,100050.25
2022-12-26T07:10:42.819Z,100045.97
2022-12-26T07:11:48.172Z,100051.22
2022-12-26T07:12:51.097Z,100050.25
2022-12-26T07:13:55.151Z,100052.13
2022-12-26T07:15:01.492Z,100050.84
2022-12-26T07:16:04.876Z,100050.75
2022-12-26T07:17:06.454Z,100047.47
2022-12-26T07:18:11.152Z,100056.75
2022-12-26T07:19:14.282Z,100068.78
2022-12-26T07:20:16.979Z,100065.75
2022-12-26T07:21:18.752Z,100069.69
2022-12-26T07:22:21.263Z,100063.19
2022-12-26T07:23:23.008Z,100066.25
2022-12-26T07:24:25.476Z,100067.16
2022-12-26T07:25:27.022Z,100050.75
2022-12-26T07:26:31.272Z,100051.81
2022-12-26T07:27:32.824Z,100038.09
2022-12-26T07:28:36.629Z,100042.00
2022-12-26T07:29:38.137Z,100039.94
2022-12-26T07:30:40.603Z,100031.22
2022-12-26T07:31:42.527Z,100034.31
2022-12-26T07:32:45.005Z,100041.09
2022-12-26T07:33:48.911Z,100034.25
2022-12-26T07:34:51.377Z,100029.44
2022-12-26T07:35:59.267Z,100033.72
2022-12-26T07:37:04.093Z,100050.78
2022-12-26T07:38:05.703Z,100057.34
2022-12-26T07:39:11.160Z,100056.47
2022-12-26T07:40:12.989Z,100069.81
2022-12-26T07:41:33.294Z,100072.84
2022-12-26T07:42:37.409Z,100079.09
2022-12-26T07:43:40.512Z,100075.72
2022-12-26T07:44:45.917Z,100079.13
2022-12-26T07:45:50.871Z,100082.72
2022-12-26T07:46:53.997Z,100079.44
2022-12-26T07:47:57.632Z,100080.75
2022-12-26T07:49:00.700Z,100086.50
2022-12-26T07:50:02.264Z,100083.63
2022-12-26T07:51:06.643Z,100083.47
2022-12-26T07:52:08.144Z,100081.56
2022-12-26T07:53:10.669Z,100082.34
2022-12-26T07:54:12.608Z,100092.38
2022-12-26T07:55:15.483Z,100084.00
2022-12-26T07:56:20.030Z,100095.72
2022-12-26T07:57:47.413Z,100096.72
2022-12-26T07:58:48.638Z,100117.03
2022-12-26T07:59:53.639Z,100114.75
2022-12-26T08:00:55.693Z,100107.06
2022-12-26T08:02:04.819Z,100109.66
2022-12-26T08:03:08.444Z,100116.47
2022-12-26T08:04:10.715Z,100106.03
2022-12-26T08:05:14.148Z,100108.78
2022-12-26T08:06:15.762Z,100106.91
2022-12-26T08:07:18.272Z,100103.06
2022-12-26T08:08:19.800Z,100102.09
2022-12-26T08:09:22.312Z,100101.72
2022-12-26T08:10:23.883Z,100100.56
2022-12-26T08:11:26.690Z,100099.28
2022-12-26T08:12:28.257Z,100103.56
2022-12-26T08:13:31.293Z,100112.81
2022-12-26T08:14:34.173Z,100110.38
2022-12-26T08:15:39.761Z,100106.84
2022-12-26T08:16:41.308Z,100101.22
2022-12-26T08:17:43.814Z,100105.47
2022-12-26T08:18:45.430Z,100097.00
2022-12-26T08:19:48.003Z,100099.13
2022-12-26T08:20:49.728Z,100091.66
2022-12-26T08:21:52.214Z,100085.59
2022-12-26T08:22:53.724Z,100078.88
2022-12-26T08:23:56.152Z,100074.44
2022-12-26T08:24:57.721Z,100085.50
2022-12-26T08:26:00.213Z,100085.94
2022-12-26T08:27:05.705Z,100095.22
2022-12-26T08:28:07.315Z,100096.00
2022-12-26T08:29:11.688Z,100099.25
2022-12-26T08:30:14.568Z,100101.47
2022-12-26T08:31:17.660Z,100103.38
2022-12-26T08:32:19.208Z,100107.63
2022-12-26T08:33:21.710Z,100106.66
2022-12-26T08:34:23.303Z,100110.06
2022-12-26T08:35:25.820Z,100100.16
2022-12-26T08:36:27.457Z,100116.06
2022-12-26T08:37:30.541Z,100113.00
2022-12-26T08:38:34.085Z,100117.50
2022-12-26T08:39:36.792Z,100115.78
2022-12-26T08:40:45.721Z,100113.34
2022-12-26T08:41:48.219Z,100112.59
2022-12-26T08:43:03.342Z,100116.22
2022-12-26T08:44:29.169Z,100107.03
2022-12-26T08:45:33.217Z,100105.25
2022-12-26T08:46:34.780Z,100104.59
2022-12-26T08:47:37.289Z,100098.97
2022-12-26T08:48:40.381Z,100105.63
2022-12-26T08:49:43.012Z,100109.91
2022-12-26T08:50:44.489Z,100104.63
2022-12-26T08:51:47.039Z,100126.56
2022-12-26T08:52:48.625Z,100116.09
2022-12-26T08:53:52.317Z,100121.22
2022-12-26T08:54:53.952Z,100123.44
2022-12-26T08:55:57.287Z,100123.88
2022-12-26T08:56:59.769Z,100135.84
2022-12-26T08:58:03.957Z,100137.78
2022-12-26T08:59:06.565Z,100140.78
2022-12-26T09:00:09.767Z,100141.03
2022-12-26T09:01:16.305Z,100138.31
2022-12-26T09:02:21.440Z,100140.06
2022-12-26T09:03:25.665Z,100137.75
2022-12-26T09:04:30.438Z,100140.00
2022-12-26T09:05:32.243Z,100145.66
2022-12-26T09:06:35.913Z,100144.41
2022-12-26T09:07:37.553Z,100148.84
2022-12-26T09:08:43.854Z,100139.97
2022-12-26T09:09:45.477Z,100146.97
2022-12-26T09:10:48.040Z,100146.28
2022-12-26T09:11:50.605Z,100149.69
2022-12-26T09:12:52.211Z,100143.25
2022-12-26T09:13:55.146Z,100143.16
2022-12-26T09:14:58.532Z,100150.56
2022-12-26T09:16:06.898Z,100149.66
2022-12-26T09:17:10.248Z,100158.44
2022-12-26T09:18:13.028Z,100142.50
2022-12-26T09:19:21.770Z,100151.53
2022-12-26T09:20:29.015Z,100150.75
2022-12-26T09:21:32.598Z,100153.19
2022-12-26T09:22:56.414Z,100148.91
2022-12-26T09:23:58.987Z,100152.84
2022-12-26T09:25:01.605Z,100148.91
2022-12-26T09:26:10.885Z,100149.94
2022-12-26T09:27:16.712Z,100157.69
2022-12-26T09:28:18.240Z,100155.09
2022-12-26T09:29:20.958Z,100161.16
2022-12-26T09:30:23.038Z,100161.66
2022-12-26T09:31:27.052Z,100160.53
2022-12-26T09:32:33.712Z,100155.91
2022-12-26T09:33:37.624Z,100150.50
2022-12-26T09:34:39.373Z,100148.31
2022-12-26T09:35:42.199Z,100151.53
2022-12-26T09:36:43.798Z,100149.53
2022-12-26T09:37:46.665Z,100152.66
2022-12-26T09:38:49.180Z,100157.06
2022-12-26T09:39:51.649Z,100167.16
2022-12-26T09:41:05.422Z,100163.72
2022-12-26T09:42:21.046Z,100159.69
2022-12-26T09:43:29.714Z,100159.63
2022-12-26T09:44:44.756Z,100163.91
2022-12-26T09:45:56.676Z,100157.59
2022-12-26T09:47:09.663Z,100161.56
2022-12-26T09:48:19.678Z,100165.75
2022-12-26T09:49:25.642Z,100159.78
2022-12-26T09:50:30.986Z,100161.34
2022-12-26T09:51:34.643Z,100161.66
2022-12-26T09:52:44.286Z,100158.59
2022-12-26T09:53:47.636Z,100171.28
2022-12-26T09:54:57.141Z,100154.06
2022-12-26T09:56:02.244Z,100162.16
2022-12-26T09:57:14.889Z,100151.00
2022-12-26T09:58:25.838Z,100160.53
2022-12-26T09:59:29.669Z,100155.59
2022-12-26T10:00:43.656Z,100152.34
2022-12-26T10:01:48.931Z,100148.97
2022-12-26T10:02:54.779Z,100151.44
2022-12-26T10:04:00.925Z,100154.06
2022-12-26T10:05:02.616Z,100147.34
2022-12-26T10:06:12.650Z,100154.22
2022-12-26T10:07:22.935Z,100147.81
2022-12-26T10:08:31.443Z,100142.50
2022-12-26T10:09:56.830Z,100140.31
2022-12-26T10:11:02.063Z,100136.66
2022-12-26T10:12:22.573Z,100144.63
2022-12-26T10:13:33.421Z,100139.25
2022-12-26T10:14:41.561Z,100140.47
2022-12-26T10:15:48.940Z,100142.06
2022-12-26T10:16:55.178Z,100146.00
2022-12-26T10:18:09.184Z,100143.06
2022-12-26T10:19:32.487Z,100134.34
2022-12-26T10:20:46.183Z,100143.19
2022-12-26T10:21:58.306Z,100136.06
2022-12-26T10:23:27.258Z,100141.06
2022-12-26T10:24:33.624Z,100142.16
2022-12-26T10:25:42.477Z,100149.84
2022-12-26T10:26:51.406Z,100148.47
2022-12-26T10:27:53.161Z,100144.31
2022-12-26T10:29:00.353Z,100157.50
2022-12-26T10:30:07.253Z,100139.75
2022-12-26T10:31:17.598Z,100143.09
2022-12-26T10:32:27.867Z,100151.41
2022-12-26T10:33:39.393Z,100153.44
2022-12-26T10:34:44.276Z,100140.31
2022-12-26T10:35:47.741Z,100146.75
2022-12-26T10:36:51.094Z,100145.47
2022-12-26T10:37:54.572Z,100149.41
2022-12-26T10:38:59.811Z,100143.34
2022-12-26T10:40:15.159Z,100157.31
2022-12-26T10:41:23.128Z,100168.06
2022-12-26T10:42:34.150Z,100190.44
2022-12-26T10:43:41.163Z,100192.03
2022-12-26T10:44:43.699Z,100195.34
2022-12-26T10:45:50.892Z,100216.94
2022-12-26T10:47:14.572Z,100207.50
2022-12-26T10:48:16.947Z,100203.06
2022-12-26T10:49:22.887Z,100210.38
2022-12-26T10:50:30.508Z,100190.53
2022-12-26T10:51:33.731Z,100197.41
2022-12-26T10:52:39.935Z,100193.31
2022-12-26T10:53:44.156Z,100183.38
2022-12-26T10:54:49.364Z,100188.44
2022-12-26T10:55:51.840Z,100198.22
2022-12-26T10:56:55.595Z,100188.28
2022-12-26T10:58:04.129Z,100193.66
2022-12-26T10:59:09.457Z,100194.94
2022-12-26T11:00:17.723Z,100197.34
2022-12-26T11:01:34.345Z,100213.72
2022-12-26T11:02:37.080Z,100221.16
2022-12-26T11:03:54.029Z,100235.78
2022-12-26T11:06:26.060Z,100245.00
2022-12-26T11:07:30.988Z,100247.22
2022-12-26T11:08:43.038Z,100241.00
2022-12-26T11:09:46.052Z,100237.00
2022-12-26T11:11:03.081Z,100237.63
2022-12-26T11:12:05.519Z,100229.94
2022-12-26T11:13:20.810Z,100239.63
2022-12-26T11:14:35.610Z,100242.41
2022-12-26T11:15:41.908Z,100245.69
2022-12-26T11:16:43.583Z,100253.38
2022-12-26T11:17:48.117Z,100242.00
2022-12-26T11:18:52.187Z,100246.91
2022-12-26T11:20:23.823Z,100241.78
2022-12-26T11:21:29.671Z,100240.13
2022-12-26T11:22:31.986Z,100229.75
2022-12-26T11:23:34.538Z,100234.03
2022-12-26T11:24:36.110Z,100234.75
2022-12-26T11:25:49.601Z,100231.31
2022-12-26T11:26:51.195Z,100227.78
2022-12-26T11:27:55.634Z,100234.16
2022-12-26T11:29:11.463Z,100235.63
2022-12-26T11:30:26.021Z,100236.88
2022-12-26T11:31:30.915Z,100243.75
2022-12-26T11:32:32.700Z,100249.19
2022-12-26T11:33:37.266Z,100246.19
2022-12-26T11:34:45.995Z,100240.22
2022-12-26T11:35:55.240Z,100237.00
2022-12-26T11:36:59.325Z,100242.41
2022-12-26T11:38:03.087Z,100245.59
2022-12-26T11:39:08.885Z,100250.78
2022-12-26T11:40:20.149Z,100247.53
2022-12-26T11:41:39.709Z,100251.63
2022-12-26T11:42:41.447Z,100245.66
2022-12-26T11:43:44.262Z,100247.06
2022-12-26T11:44:52.317Z,100238.03
2022-12-26T11:45:53.965Z,100226.81
2022-12-26T11:47:01.144Z,100230.91
2022-12-26T11:48:02.837Z,100230.84
2022-12-26T11:49:06.609Z,100223.81
2022-12-26T11:50:12.051Z,100215.50
2022-12-26T11:51:14.944Z,100215.66
2022-12-26T11:52:39.740Z,100203.78
2022-12-26T11:53:43.947Z,100209.28
2022-12-26T11:54:53.827Z,100211.38
2022-12-26T11:56:01.705Z,100220.31
2022-12-26T11:57:17.848Z,100212.16
2022-12-26T11:58:25.351Z,100212.38
2022-12-26T11:59:26.894Z,100206.38
2022-12-26T12:00:30.291Z,100211.53
2022-12-26T12:01:32.119Z,100199.78
2022-12-26T12:02:36.537Z,100209.50
2022-12-26T12:03:48.573Z,100204.44
2022-12-26T12:04:54.693Z,100198.66
2022-12-26T12:06:03.289Z,100200.63
2022-12-26T12:07:14.408Z,100193.84
2022-12-26T12:08:35.212Z,100202.25
2022-12-26T12:09:45.310Z,100191.09
2022-12-26T12:11:00.854Z,100178.59
2022-12-26T12:12:11.785Z,100182.44
2022-12-26T12:13:21.484Z,100190.47
2022-12-26T12:14:36.144Z,100187.41
2022-12-26T12:15:43.822Z,100184.97
2022-12-26T12:16:56.588Z,100180.28
2022-12-26T12:18:05.294Z,100198.59
2022-12-26T12:19:21.727Z,100194.66
2022-12-26T12:20:32.628Z,100208.09
2022-12-26T12:21:42.122Z,100209.75
2022-12-26T12:22:59.334Z,100217.03
2022-12-26T12:24:31.064Z,100215.47
2022-12-26T12:25:43.207Z,100211.75
2022-12-26T12:27:01.622Z,100224.13
2022-12-26T12:28:19.963Z,100229.44
2022-12-26T12:29:35.473Z,100230.03
2022-12-26T12:30:45.673Z,100220.72
2022-12-26T12:32:07.142Z,100226.88
2022-12-26T12:33:36.927Z,100222.81
2022-12-26T12:34:56.372Z,100216.25
2022-12-26T12:36:09.515Z,100225.16
2022-12-26T12:37:24.348Z,100228.72
2022-12-26T12:38:30.509Z,100232.06
2022-12-26T12:39:47.067Z,100237.84
2022-12-26T12:40:55.996Z,100233.72
2022-12-26T12:42:23.494Z,100237.69
2022-12-26T12:43:31.416Z,100241.53
2022-12-26T12:44:56.577Z,100241.47
2022-12-26T12:46:11.557Z,100236.63
2022-12-26T12:47:24.645Z,100252.41
2022-12-26T12:48:42.935Z,100243.50
2022-12-26T12:49:59.907Z,100250.66
2022-12-26T12:51:12.308Z,100263.22
2022-12-26T12:52:25.215Z,100255.91
2022-12-26T12:53:52.964Z,100249.09
2022-12-26T12:55:29.750Z,100256.09
2022-12-26T12:56:42.573Z,100250.66
2022-12-26T12:57:50.279Z,100247.13
2022-12-26T12:59:02.080Z,100250.63
2022-12-26T13:00:13.738Z,100245.03
2022-12-26T13:01:24.244Z,100240.53
2022-12-26T13:02:32.262Z,100232.44
2022-12-26T13:03:42.173Z,100233.97
2022-12-26T13:04:49.557Z,100240.19
2022-12-26T13:05:58.655Z,100232.00
2022-12-26T13:07:06.187Z,100218.84
2022-12-26T13:08:15.121Z,100232.47
2022-12-26T13:09:21.961Z,100227.00
2022-12-26T13:10:30.399Z,100217.91
2022-12-26T13:11:38.198Z,100219.47
2022-12-26T13:12:43.992Z,100218.16
2022-12-26T13:13:54.039Z,100215.41
2022-12-26T13:14:58.306Z,100213.72